Data for 01/31/2016

Time Sea-Level Adjusted Pressure Absolute Pressure Temperature Relative Humidity Dew Point   
(mb) (inHg) (mb) (inHg) (C) (F) (%) (C) (F)
00:05 1011 29.85 840 24.81 -4.9 23.3 73 -9 15.8
00:10 1011 29.85 840 24.81 -4.9 23.2 73 -9 15.7
00:15 1011 29.85 840 24.81 -5.2 22.6 74 -9.1 15.5
00:20 1011 29.85 840 24.81 -5.4 22.3 74 -9.3 15.3
00:25 1011 29.85 840 24.81 -5.6 22 74 -9.4 15.1
00:30 1011 29.85 840 24.81 -5.6 21.9 74 -9.5 14.9
00:35 1011 29.85 840 24.81 -5.7 21.8 74 -9.6 14.8
00:40 1011 29.85 840 24.81 -5.9 21.3 75 -9.7 14.6
00:45 1011 29.85 840 24.81 -6.1 21 75 -9.8 14.4
00:50 1011 29.85 840 24.81 -6.4 20.6 76 -9.9 14.2
00:55 1011 29.85 840 24.81 -6.6 20.1 76 -10.1 13.9
01:00 1011 29.85 840 24.81 -6.7 19.9 76 -10.3 13.5
01:05 1011 29.85 840 24.81 -6.6 20.1 75 -10.3 13.4
01:10 1011 29.85 840 24.81 -6.3 20.6 73 -10.4 13.3
01:15 1011 29.85 840 24.81 -6 21.1 72 -10.4 13.3
01:20 1011 29.85 840 24.81 -5.8 21.5 72 -10.1 13.8
01:25 1011 29.85 840 24.81 -5.8 21.6 71 -10.1 13.7
01:30 1011 29.85 840 24.81 -6 21.2 73 -10.1 13.7
01:35 1011 29.85 840 24.81 -6 21.1 70 -10.7 12.7
01:40 1011 29.85 840 24.81 -6.1 21 70 -10.7 12.7
01:45 1011 29.85 840 24.81 -6.3 20.7 71 -10.8 12.6
01:50 1011 29.85 840 24.81 -6.4 20.4 71 -10.9 12.4
01:55 1011 29.85 840 24.81 -6.4 20.4 71 -10.9 12.4
02:00 1011 29.85 840 24.81 -6.6 20.2 72 -10.8 12.5
02:05 1011 29.85 840 24.81 -6.7 20 71 -11.1 11.9
02:10 1011 29.85 840 24.81 -6.3 20.7 67 -11.4 11.5
02:15 1011 29.85 840 24.81 -6 21.2 66 -11.3 11.7
02:20 1011 29.85 840 24.81 -5.7 21.7 66 -11.2 11.9
02:25 1011 29.85 840 24.81 -5.3 22.4 65 -11 12.3
02:30 1011 29.85 840 24.81 -5.2 22.6 67 -10.5 13.1
02:35 1011 29.85 840 24.81 -5.5 22.2 69 -10.4 13.3
02:40 1011 29.85 840 24.81 -5.6 21.9 64 -11.4 11.6
02:45 1011 29.85 840 24.81 -5.3 22.4 68 -10.3 13.5
02:50 1011 29.85 840 24.81 -5.6 22 67 -10.7 12.7
02:55 1011 29.85 840 24.81 -5.7 21.8 63 -11.5 11.2
03:00 1011 29.85 840 24.81 -5.6 21.9 63 -11.5 11.2
03:05 1011 29.85 840 24.81 -5.8 21.6 63 -11.8 10.8
03:10 1011 29.85 840 24.81 -5.7 21.7 62 -11.8 10.7
03:15 1011 29.85 840 24.81 -5.8 21.6 64 -11.6 11.2
03:20 1011 29.85 840 24.81 -6.1 21.1 68 -11.1 12.1
03:25 1011 29.85 841 24.83 -6.2 20.9 65 -11.8 10.7
03:30 1011 29.85 841 24.83 -6.1 21 64 -11.9 10.6
03:35 1011 29.85 841 24.83 -5.7 21.7 61 -12.2 10.1
03:40 1011 29.85 841 24.83 -5.5 22.1 61 -11.9 10.5
03:45 1011 29.85 841 24.83 -5.4 22.2 60 -12.1 10.3
03:50 1011 29.85 841 24.83 -5.5 22.1 60 -12.1 10.2
03:55 1011 29.85 841 24.83 -5.6 22 60 -12.1 10.2
04:00 1012 29.88 841 24.83 -5.5 22.2 60 -12.1 10.2
04:05 1012 29.88 841 24.83 -5.5 22.1 61 -11.9 10.5
04:10 1012 29.88 841 24.83 -5.5 22 63 -11.5 11.3
04:15 1012 29.88 841 24.83 -5.5 22.1 63 -11.6 11.2
04:20 1012 29.88 841 24.83 -5.7 21.8 64 -11.4 11.4
04:25 1012 29.88 841 24.83 -5.9 21.4 64 -11.8 10.8
04:30 1012 29.88 841 24.83 -6.2 20.8 64 -12 10.4
04:35 1012 29.88 841 24.83 -6.2 20.8 64 -12 10.4
04:40 1012 29.88 841 24.83 -5.9 21.3 63 -11.8 10.7
04:45 1012 29.88 841 24.83 -5.9 21.4 63 -11.9 10.6
04:50 1012 29.88 841 24.83 -6 21.3 63 -12 10.5
04:55 1012 29.88 841 24.83 -5.8 21.5 62 -12 10.4
05:00 1012 29.88 841 24.83 -5.9 21.3 64 -11.8 10.8
05:05 1012 29.88 841 24.83 -6 21.2 65 -11.6 11.2
05:10 1012 29.88 841 24.83 -6.1 21.1 64 -11.9 10.6
05:15 1012 29.88 841 24.83 -5.9 21.3 63 -11.9 10.6
05:20 1012 29.88 841 24.83 -5.9 21.3 64 -11.7 11
05:25 1012 29.88 841 24.83 -6 21.2 67 -11.2 11.9
05:30 1012 29.88 841 24.83 -6.2 20.8 67 -11.3 11.6
05:35 1012 29.88 841 24.83 -6.4 20.5 68 -11.4 11.4
05:40 1012 29.88 841 24.83 -6.2 20.8 67 -11.4 11.5
05:45 1012 29.88 841 24.83 -6.1 21 67 -11.3 11.6
05:50 1012 29.88 841 24.83 -6 21.1 65 -11.6 11.2
05:55 1012 29.88 841 24.83 -6 21.1 66 -11.4 11.4
06:00 1012 29.88 841 24.83 -6.1 21 65 -11.6 11.1
06:05 1012 29.88 841 24.83 -6.1 20.9 66 -11.6 11.1
06:10 1012 29.88 841 24.83 -6.2 20.9 67 -11.3 11.6
06:15 1012 29.88 841 24.83 -6.3 20.7 68 -11.3 11.7
06:20 1012 29.88 841 24.83 -6.2 20.8 67 -11.3 11.6
06:25 1012 29.88 841 24.83 -6.2 20.9 66 -11.5 11.3
06:30 1012 29.88 841 24.83 -6.1 20.9 68 -11.2 11.9
06:35 1012 29.88 841 24.83 -6.2 20.8 69 -11.1 12.1
06:40 1012 29.88 841 24.83 -6.3 20.6 68 -11.3 11.6
06:45 1012 29.88 841 24.83 -6.5 20.4 67 -11.6 11.1
06:50 1012 29.88 841 24.83 -6.4 20.4 68 -11.4 11.5
06:55 1012 29.88 841 24.83 -6.4 20.5 66 -11.7 11
07:00 1012 29.88 841 24.83 -6.2 20.9 67 -11.3 11.6
07:05 1012 29.88 841 24.83 -6.1 21 69 -10.9 12.4
07:10 1012 29.88 841 24.83 -6.1 21 67 -11.3 11.7
07:15 1012 29.88 841 24.83 -6 21.1 67 -11.2 11.8
07:20 1012 29.88 841 24.83 -6.1 21 68 -11.1 12
07:25 1012 29.88 841 24.83 -6 21.1 67 -11.1 11.9
07:30 1012 29.88 841 24.83 -6 21.1 68 -11.1 12
07:35 1012 29.88 841 24.83 -6.1 21 68 -11.2 11.9
07:40 1012 29.88 841 24.83 -6.2 20.9 68 -11.2 11.8
07:45 1012 29.88 841 24.83 -6.3 20.7 69 -11 12.1
07:50 1012 29.88 841 24.83 -6.4 20.5 70 -11 12.2
07:55 1012 29.88 841 24.83 -6.5 20.2 71 -11 12.3
08:00 1012 29.88 841 24.83 -6.6 20.2 71 -11 12.3
08:05 1012 29.88 841 24.83 -6.7 20 70 -11.2 11.8
08:10 1012 29.88 841 24.83 -6.5 20.3 69 -11.4 11.5
08:15 1012 29.88 841 24.83 -6.6 20.2 70 -11.2 11.8
08:20 1012 29.88 841 24.83 -6.6 20.1 68 -11.6 11.1
08:25 1012 29.88 841 24.83 -6.5 20.3 67 -11.6 11.1
08:30 1012 29.88 841 24.83 -6.4 20.5 67 -11.5 11.3
08:35 1012 29.88 841 24.83 -6.5 20.3 68 -11.4 11.5
08:40 1012 29.88 841 24.83 -6.7 20 69 -11.4 11.5
08:45 1012 29.88 841 24.83 -6.7 20 70 -11.3 11.7
08:50 1012 29.88 841 24.83 -6.6 20.1 70 -11.3 11.7
08:55 1012 29.88 841 24.83 -6.6 20.1 69 -11.3 11.6
09:00 1012 29.88 841 24.83 -6.6 20.1 69 -11.3 11.7
09:05 1012 29.88 841 24.83 -6.6 20.1 68 -11.5 11.3
09:10 1012 29.88 841 24.83 -6.7 20 70 -11.4 11.6
09:15 1012 29.88 841 24.83 -6.8 19.7 70 -11.5 11.3
09:20 1012 29.88 841 24.83 -6.7 19.9 70 -11.3 11.6
09:25 1012 29.88 841 24.83 -6.7 19.9 69 -11.5 11.4
09:30 1012 29.88 841 24.83 -6.8 19.8 70 -11.4 11.5
09:35 1012 29.88 841 24.83 -6.8 19.7 70 -11.5 11.4
09:40 1012 29.88 841 24.83 -6.6 20 69 -11.4 11.5
09:45 1012 29.88 841 24.83 -6.5 20.4 69 -11.3 11.7
09:50 1012 29.88 841 24.83 -6.3 20.6 70 -11 12.1
09:55 1012 29.88 841 24.83 -6.4 20.4 69 -11.2 11.8
10:00 1012 29.88 841 24.83 -6.5 20.3 68 -11.5 11.3
10:05 1012 29.88 841 24.83 -6.4 20.5 67 -11.6 11.2
10:10 1012 29.88 841 24.83 -6.3 20.7 67 -11.4 11.5
10:15 1012 29.88 841 24.83 -6.2 20.8 66 -11.5 11.2
10:20 1012 29.88 841 24.83 -6.1 21.1 67 -11.3 11.7
10:25 1012 29.88 841 24.83 -6.2 20.9 67 -11.3 11.7
10:30 1012 29.88 841 24.83 -6 21.3 67 -11.1 12.1
10:35 1012 29.88 841 24.83 -5.7 21.8 66 -11.1 12.1
10:40 1012 29.88 841 24.83 -5.4 22.3 64 -11.3 11.7
10:45 1012 29.88 841 24.83 -5 22.9 60 -11.5 11.2
10:50 1012 29.88 841 24.83 -4.6 23.6 60 -11.3 11.7
10:55 1012 29.88 842 24.86 -4.4 24.1 60 -11.1 12
11:00 1012 29.88 842 24.86 -4 24.7 58 -11.1 12
11:05 1012 29.88 842 24.86 -3.8 25.1 57 -11.1 11.9
11:10 1012 29.88 842 24.86 -4.2 24.4 58 -11.3 11.6
11:15 1012 29.88 842 24.86 -4.1 24.6 59 -11 12.1
11:20 1012 29.88 842 24.86 -3.6 25.5 57 -11 12.2
11:25 1013 29.91 842 24.86 -3.3 26.1 55 -11 12.1
11:30 1013 29.91 842 24.86 -3.5 25.6 58 -10.5 13
11:35 1013 29.91 842 24.86 -3.6 25.6 61 -10.1 13.9
11:40 1013 29.91 842 24.86 -3.5 25.7 56 -11.1 12
11:45 1013 29.91 842 24.86 -3.1 26.5 55 -10.8 12.5
11:50 1013 29.91 842 24.86 -2.6 27.3 52 -11 12.1
11:55 1013 29.91 842 24.86 -2.4 27.8 50 -11.3 11.7
12:00 1013 29.91 842 24.86 -2.2 28 51 -11 12.2
12:05 1013 29.91 842 24.86 -2.4 27.7 53 -10.8 12.6
12:10 1013 29.91 842 24.86 -2.3 27.9 52 -10.8 12.5
12:15 1013 29.91 842 24.86 -2.2 28 52 -10.9 12.3
12:20 1013 29.91 842 24.86 -2.1 28.3 52 -10.7 12.7
12:25 1013 29.91 842 24.86 -1.9 28.5 52 -10.5 13.1
12:30 1013 29.91 842 24.86 -2 28.4 51 -10.8 12.5
12:35 1013 29.91 842 24.86 -2.2 28.1 51 -10.9 12.4
12:40 1013 29.91 842 24.86 -2.4 27.7 52 -11 12.3
12:45 1013 29.91 842 24.86 -2.7 27.1 53 -11.1 12
12:50 1013 29.91 842 24.86 -2.9 26.7 53 -11.3 11.7
12:55 1013 29.91 842 24.86 -2.9 26.7 52 -11.4 11.5
13:00 1013 29.91 842 24.86 -2.5 27.5 51 -11.5 11.4
13:05 1013 29.91 842 24.86 -2.4 27.8 51 -11.1 12
13:10 1013 29.91 842 24.86 -2.5 27.6 51 -11.4 11.5
13:15 1013 29.91 842 24.86 -2.3 27.8 52 -10.9 12.4
13:20 1012 29.88 842 24.86 -2.2 28.1 50 -11.2 11.9
13:25 1012 29.88 842 24.86 -1.9 28.6 49 -11.4 11.6
13:30 1012 29.88 842 24.86 -1.7 28.9 49 -11 12.1
13:35 1012 29.88 842 24.86 -1 30.3 46 -11.1 11.9
13:40 1012 29.88 842 24.86 -0.5 31.1 45 -11.2 11.9
13:45 1012 29.88 842 24.86 -0.5 31.2 44 -11.2 11.8
13:50 1012 29.88 841 24.83 -0.4 31.3 46 -10.5 13
13:55 1012 29.88 841 24.83 -0.5 31.2 47 -10.4 13.2
14:00 1012 29.88 841 24.83 -0.6 30.9 44 -11.4 11.6
14:05 1012 29.88 841 24.83 -0.4 31.3 44 -11.3 11.6
14:10 1012 29.88 841 24.83 -2.1 28.2 49 -11.5 11.3
14:15 1012 29.88 841 24.83 -1.6 29.1 46 -11.7 11
14:20 1012 29.88 841 24.83 -1.3 29.7 46 -11.5 11.2
14:25 1012 29.88 841 24.83 -1.1 30.1 47 -11 12.2
14:30 1012 29.88 841 24.83 -1.9 28.5 50 -11.1 12.1
14:35 1012 29.88 841 24.83 -2.4 27.7 49 -11.6 11.1
14:40 1012 29.88 841 24.83 -2.8 27 50 -11.8 10.7
14:45 1012 29.88 841 24.83 -2.9 26.8 51 -11.8 10.8
14:50 1012 29.88 841 24.83 -1.7 28.9 46 -12 10.4
14:55 1012 29.88 841 24.83 -1.1 30 44 -11.8 10.7
15:00 1012 29.88 841 24.83 -0.6 30.9 42 -11.9 10.5
15:05 1012 29.88 841 24.83 -0.4 31.3 42 -11.8 10.8
15:10 1012 29.88 841 24.83 -0.5 31 43 -11.7 11
15:15 1012 29.88 841 24.83 -0.5 31 42 -11.8 10.8
15:20 1012 29.88 841 24.83 -0.6 30.9 43 -11.7 11
15:25 1012 29.88 841 24.83 -1.3 29.6 45 -11.8 10.7
15:30 1012 29.88 841 24.83 -1 30.1 44 -11.9 10.7
15:35 1012 29.88 841 24.83 -0.9 30.4 43 -12.1 10.3
15:40 1012 29.88 841 24.83 -0.3 31.5 43 -11.5 11.3
15:45 1012 29.88 841 24.83 0.1 32.1 39 -12.3 9.9
15:50 1012 29.88 841 24.83 0.5 33 38 -12.2 10.1
15:55 1012 29.88 841 24.83 0.2 32.3 36 -13.2 8.2
16:00 1012 29.88 841 24.83 -0.6 30.9 37 -13.5 7.7
16:05 1012 29.88 841 24.83 0.2 32.4 35 -13.4 7.8
16:10 1012 29.88 841 24.83 0.5 32.9 34 -13.5 7.7
16:15 1012 29.88 841 24.83 0.6 33.1 35 -13 8.5
16:20 1012 29.88 841 24.83 0.1 32.1 40 -12 10.5
16:25 1012 29.88 841 24.83 -1.7 28.9 46 -12 10.4
16:30 1012 29.88 841 24.83 -2.1 28.1 45 -12.4 9.6
16:35 1012 29.88 841 24.83 -2.1 28.1 45 -12.5 9.5
16:40 1012 29.88 841 24.83 -2.4 27.6 45 -12.7 9.1
16:45 1012 29.88 841 24.83 -2.5 27.5 45 -12.8 9
16:50 1012 29.88 841 24.83 -2.3 27.9 44 -12.8 8.9
16:55 1012 29.88 841 24.83 -2 28.5 44 -12.8 9
17:00 1012 29.88 841 24.83 -2 28.5 43 -13 8.5
17:05 1012 29.88 841 24.83 -2.2 28 43 -13.2 8.3
17:10 1012 29.88 841 24.83 -2.2 28.1 42 -13.6 7.6
17:15 1012 29.88 841 24.83 -2.1 28.2 42 -13.5 7.7
17:20 1012 29.88 841 24.83 -2 28.4 42 -13.2 8.2
17:25 1012 29.88 841 24.83 -2 28.4 42 -13.3 8.1
17:30 1012 29.88 841 24.83 -2 28.4 42 -13.4 8
17:35 1011 29.85 841 24.83 -1.9 28.5 41 -13.4 7.9
17:40 1012 29.88 841 24.83 -1.7 28.9 40 -13.6 7.4
17:45 1012 29.88 841 24.83 -1.6 29.1 38 -14.1 6.7
17:50 1012 29.88 841 24.83 -1.6 29.2 37 -14.5 6
17:55 1012 29.88 841 24.83 -1.7 28.9 38 -14.4 6.1
18:00 1012 29.88 841 24.83 -1.5 29.3 38 -14 6.8
18:05 1012 29.88 841 24.83 -1.3 29.6 36 -14.4 6
18:10 1012 29.88 841 24.83 -1.4 29.5 39 -13.7 7.3
18:15 1012 29.88 841 24.83 -1.6 29.2 39 -13.9 6.9
18:20 1012 29.88 841 24.83 -1.7 28.9 39 -13.9 7
18:25 1012 29.88 841 24.83 -2.2 28.1 41 -13.8 7.2
18:30 1012 29.88 841 24.83 -2.7 27.2 43 -13.6 7.5
18:35 1012 29.88 841 24.83 -3 26.6 44 -13.6 7.4
18:40 1012 29.88 841 24.83 -3.4 25.9 47 -13 8.6
18:45 1012 29.88 841 24.83 -3.5 25.7 47 -13.2 8.3
18:50 1012 29.88 841 24.83 -3.6 25.6 48 -13 8.5
18:55 1012 29.88 841 24.83 -3.8 25.1 47 -13.6 7.6
19:00 1012 29.88 841 24.83 -4.6 23.7 49 -13.9 7
19:05 1012 29.88 841 24.83 -5.2 22.6 54 -13.2 8.3
19:10 1012 29.88 841 24.83 -5.9 21.3 55 -13.5 7.7
19:15 1012 29.88 841 24.83 -6.3 20.7 59 -13.1 8.4
19:20 1012 29.88 841 24.83 -6.2 20.9 56 -13.6 7.5
19:25 1012 29.88 841 24.83 -6.2 20.8 58 -13.2 8.2
19:30 1012 29.88 841 24.83 -6.2 20.8 57 -13.3 8
19:35 1012 29.88 841 24.83 -6.3 20.7 57 -13.4 7.9
19:40 1012 29.88 841 24.83 -6.5 20.2 59 -13.3 8.1
19:45 1012 29.88 841 24.83 -6.8 19.8 60 -13.4 7.9
19:50 1012 29.88 841 24.83 -6.6 20.1 59 -13.4 7.9
19:55 1012 29.88 841 24.83 -6.5 20.4 58 -13.4 7.8
20:00 1012 29.88 841 24.83 -6.9 19.6 59 -13.5 7.6
20:05 1012 29.88 841 24.83 -7.3 18.8 61 -13.5 7.7
20:10 1012 29.88 841 24.83 -7.5 18.6 61 -13.7 7.4
20:15 1012 29.88 841 24.83 -7.7 18.2 62 -13.8 7.2
20:20 1012 29.88 841 24.83 -7.8 18 62 -13.9 7
20:25 1012 29.88 841 24.83 -7.8 17.9 62 -13.8 7.1
20:30 1012 29.88 841 24.83 -8.2 17.3 64 -13.8 7.2
20:35 1012 29.88 841 24.83 -8.1 17.4 61 -14.3 6.3
20:40 1012 29.88 841 24.83 -8.1 17.5 62 -14.2 6.4
20:45 1012 29.88 841 24.83 -8.2 17.2 64 -14 6.9
20:50 1012 29.88 841 24.83 -8.5 16.7 64 -14.2 6.5
20:55 1012 29.88 842 24.86 -9 15.9 66 -14.2 6.4
21:00 1012 29.88 842 24.86 -9.2 15.5 65 -14.7 5.6
21:05 1012 29.88 842 24.86 -8.8 16.1 63 -14.7 5.6
21:10 1012 29.88 842 24.86 -8.6 16.5 63 -14.6 5.8
21:15 1012 29.88 842 24.86 -8.6 16.5 62 -14.6 5.8
21:20 1012 29.88 842 24.86 -8.2 17.2 60 -14.7 5.5
21:25 1012 29.88 842 24.86 -8.1 17.4 60 -14.5 5.9
21:30 1012 29.88 842 24.86 -8.4 17 61 -14.6 5.8
21:35 1013 29.91 842 24.86 -8.6 16.6 62 -14.6 5.7
21:40 1013 29.91 842 24.86 -8.6 16.6 62 -14.7 5.6
21:45 1013 29.91 842 24.86 -8.6 16.5 61 -14.7 5.5
21:50 1013 29.91 842 24.86 -8.7 16.3 62 -14.7 5.5
21:55 1013 29.91 842 24.86 -8.8 16.2 62 -14.8 5.4
22:00 1013 29.91 842 24.86 -9 15.8 63 -14.7 5.5
22:05 1013 29.91 842 24.86 -9.3 15.4 64 -14.9 5.2
22:10 1013 29.91 842 24.86 -9.3 15.2 64 -14.9 5.1
22:15 1013 29.91 842 24.86 -9.3 15.2 64 -15 5
22:20 1013 29.91 842 24.86 -9.3 15.3 63 -15 5
22:25 1013 29.91 842 24.86 -9.2 15.5 64 -14.9 5.2
22:30 1013 29.91 842 24.86 -9.1 15.6 62 -15.1 4.8
22:35 1013 29.91 842 24.86 -8.8 16.1 61 -15 5.1
22:40 1013 29.91 842 24.86 -9 15.7 63 -14.9 5.1
22:45 1013 29.91 842 24.86 -9.3 15.3 64 -15 5
22:50 1013 29.91 842 24.86 -9.5 15 64 -15.1 4.9
22:55 1013 29.91 842 24.86 -9.6 14.7 65 -15.1 4.9
23:00 1013 29.91 842 24.86 -9.8 14.4 65 -15.2 4.6
23:05 1013 29.91 842 24.86 -9.7 14.6 65 -15.1 4.9
23:10 1013 29.91 842 24.86 -9.5 14.8 64 -15.2 4.6
23:15 1013 29.91 842 24.86 -9.2 15.5 62 -15.2 4.6
23:20 1013 29.91 842 24.86 -8.9 16.1 61 -15.1 4.8
23:25 1013 29.91 842 24.86 -9 15.8 62 -14.9 5.1
23:30 1013 29.91 842 24.86 -9.1 15.7 62 -15.1 4.9
23:35 1013 29.91 842 24.86 -9.1 15.6 62 -15.1 4.8
23:40 1013 29.91 842 24.86 -9.2 15.5 63 -15.1 4.8
23:45 1013 29.91 842 24.86 -9 15.8 62 -15 4.9
23:50 1013 29.91 842 24.86 -9 15.8 62 -15 5
23:55 1013 29.91 842 24.86 -9.2 15.4 62 -15.2 4.7
24:00 1013 29.91 842 24.86 -9.2 15.4 63 -15 4.9